Time;durP1;ratioP1;P1;durP2;ratioP2;P2;SDS_P1;SDS_P2;PMS_P1;PMS_P2;Temp;Humidity;BMP_temperature;BMP_pressure;BME280_temperature;BME280_humidity;BME280_pressure;Samples;Min_cycle;Max_cycle;Signal;HPM_P1;HPM_P2
2022/01/31 00:01:01;;;;;;;2.40;0.57;;;;;;;2.48;69.88;98118.45;1749595;80;21556;-51
2022/01/31 00:03:30;;;;;;;2.87;0.70;;;;;;;2.43;69.59;98107.62;1751092;81;21497;-50
2022/01/31 00:05:57;;;;;;;1.17;0.30;;;;;;;2.40;69.29;98109.53;1757119;79;21073;-51
2022/01/31 00:08:24;;;;;;;1.45;0.50;;;;;;;2.35;69.14;98105.66;1736118;80;21617;-51
2022/01/31 00:10:51;;;;;;;2.17;0.62;;;;;;;2.30;69.17;98107.80;1768662;79;21128;-51
2022/01/31 00:13:26;;;;;;;1.35;0.25;;;;;;;2.33;69.16;98114.05;1755698;81;21097;-51
2022/01/31 00:15:55;;;;;;;3.17;0.70;;;;;;;2.40;68.98;98117.31;1760130;80;21560;-51
2022/01/31 00:18:21;;;;;;;1.67;0.65;;;;;;;2.46;68.99;98115.98;1741642;80;21071;-51
2022/01/31 00:20:49;;;;;;;1.10;0.40;;;;;;;2.50;68.97;98114.76;1773389;79;21091;-51
2022/01/31 00:23:16;;;;;;;1.12;0.33;;;;;;;2.48;69.00;98115.85;1735240;80;21066;-52
2022/01/31 00:25:44;;;;;;;2.47;0.75;;;;;;;2.47;69.19;98116.79;1750992;81;21039;-51
2022/01/31 00:28:11;;;;;;;4.53;0.65;;;;;;;2.38;69.41;98107.52;1759036;81;21053;-50
2022/01/31 00:30:38;;;;;;;1.40;0.35;;;;;;;2.35;69.68;98105.66;1758184;81;21057;-51
2022/01/31 00:33:04;;;;;;;1.75;0.30;;;;;;;2.35;69.89;98110.36;1755761;79;21054;-50
2022/01/31 00:35:31;;;;;;;1.85;0.40;;;;;;;2.42;69.90;98110.67;1770808;79;21095;-51
2022/01/31 00:37:57;;;;;;;2.45;0.57;;;;;;;2.46;70.01;98109.97;1746186;80;21113;-50
2022/01/31 00:40:24;;;;;;;1.98;0.50;;;;;;;2.46;70.24;98109.97;1716098;80;21148;-51
2022/01/31 00:42:51;;;;;;;2.02;0.65;;;;;;;2.42;70.44;98096.40;1750767;79;21498;-50
2022/01/31 00:47:48;;;;;;;1.47;0.50;;;;;;;2.33;70.91;98101.06;1763371;79;21432;-50
2022/01/31 00:50:13;;;;;;;1.25;0.35;;;;;;;2.27;71.13;98101.56;1773388;79;21045;-51
2022/01/31 00:52:42;;;;;;;2.22;0.50;;;;;;;2.25;71.27;98096.50;1788425;77;21553;-51
2022/01/31 00:55:12;;;;;;;1.87;0.50;;;;;;;2.31;71.34;98097.30;1789324;78;20950;-52
2022/01/31 00:57:40;;;;;;;1.77;0.53;;;;;;;2.33;71.35;98088.91;1749535;79;21628;-50
2022/01/31 01:00:08;;;;;;;1.62;0.35;;;;;;;2.31;71.52;98089.52;1752249;79;22032;-50
2022/01/31 01:02:35;;;;;;;1.87;0.60;;;;;;;2.29;71.72;98091.91;1779295;79;21147;-51
2022/01/31 01:05:02;;;;;;;2.25;0.65;;;;;;;2.26;71.77;98079.98;1775856;79;21006;-51
2022/01/31 01:07:29;;;;;;;2.05;0.60;;;;;;;2.21;71.71;98079.55;1770895;79;21164;-50
2022/01/31 01:09:56;;;;;;;0.78;0.30;;;;;;;2.16;71.82;98094.19;1773152;79;22179;-51
2022/01/31 01:12:23;;;;;;;1.17;0.28;;;;;;;2.15;71.91;98086.08;1774301;79;21142;-49
2022/01/31 01:14:50;;;;;;;2.52;0.50;;;;;;;2.21;71.73;98087.33;1751794;80;21042;-50
2022/01/31 01:17:17;;;;;;;0.98;0.30;;;;;;;2.25;71.60;98087.41;1776731;79;21148;-59
2022/01/31 01:19:43;;;;;;;0.93;0.28;;;;;;;2.26;71.51;98096.05;1773648;79;21057;-58
2022/01/31 01:22:10;;;;;;;1.45;0.45;;;;;;;2.25;71.63;98085.30;1744656;79;21097;-59
2022/01/31 01:24:37;;;;;;;1.80;0.42;;;;;;;2.22;71.64;98091.10;1779362;79;21215;-58
2022/01/31 01:27:04;;;;;;;1.30;0.30;;;;;;;2.18;71.76;98081.91;1746602;79;21533;-58
2022/01/31 01:29:31;;;;;;;0.80;0.20;;;;;;;2.14;71.86;98086.20;1745881;79;21094;-58
2022/01/31 01:31:57;;;;;;;1.72;0.40;;;;;;;2.12;71.98;98095.86;1775378;79;21237;-57
2022/01/31 01:34:26;;;;;;;0.82;0.23;;;;;;;2.14;71.99;98088.80;1768467;80;21541;-58
2022/01/31 01:36:53;;;;;;;2.37;0.42;;;;;;;2.20;72.00;98093.01;1766786;79;21131;-61
2022/01/31 01:39:20;;;;;;;1.45;0.40;;;;;;;2.25;72.01;98096.50;1773730;79;21085;-66
2022/01/31 01:41:47;;;;;;;0.88;0.30;;;;;;;2.21;72.04;98094.63;1775362;79;20980;-61
2022/01/31 01:44:14;;;;;;;0.98;0.30;;;;;;;2.17;72.47;98093.25;1746515;80;21061;-63
2022/01/31 01:46:41;;;;;;;0.85;0.13;;;;;;;2.12;72.28;98101.89;1770686;79;21591;-60
2022/01/31 01:49:07;;;;;;;0.75;0.20;;;;;;;2.07;72.28;98088.92;1747567;79;22538;-69
2022/01/31 01:51:37;;;;;;;0.93;0.20;;;;;;;2.00;72.66;98104.16;1743177;81;21552;-71
2022/01/31 01:54:04;;;;;;;0.60;0.15;;;;;;;1.96;73.44;98102.30;1776539;79;21112;-60
2022/01/31 01:56:31;;;;;;;0.57;0.20;;;;;;;1.97;73.67;98090.98;1786711;80;21045;-60
2022/01/31 01:59:04;;;;;;;1.57;0.40;;;;;;;1.99;73.46;98098.64;1773306;78;21061;-60
2022/01/31 02:01:27;;;;;;;1.30;0.37;;;;;;;1.98;73.09;98094.39;1773380;78;21051;-61
2022/01/31 02:03:56;;;;;;;0.80;0.17;;;;;;;1.94;73.28;98099.02;1735751;79;21114;-63
2022/01/31 02:06:24;;;;;;;1.12;0.10;;;;;;;1.89;73.50;98105.53;1749215;80;21046;-64
2022/01/31 02:08:51;;;;;;;0.90;0.20;;;;;;;1.85;73.58;98098.47;1772012;80;21063;-62
2022/01/31 02:11:20;;;;;;;0.95;0.20;;;;;;;1.82;73.63;98098.23;1772321;80;21499;-62
2022/01/31 02:13:49;;;;;;;1.20;0.30;;;;;;;1.87;73.46;98097.88;1769059;80;21152;-63
2022/01/31 02:16:23;;;;;;;1.70;0.33;;;;;;;1.95;73.36;98101.13;1764874;80;21729;-69
2022/01/31 02:18:52;;;;;;;2.65;0.47;;;;;;;1.98;73.03;98108.66;1784706;78;21037;-64
2022/01/31 02:21:33;;;;;;;1.50;0.35;;;;;;;1.92;73.12;98097.02;1665085;80;21073;-63
2022/01/31 02:24:00;;;;;;;1.52;0.37;;;;;;;1.86;73.38;98095.73;1751192;79;21052;-67
2022/01/31 02:26:32;;;;;;;0.80;0.20;;;;;;;1.79;73.56;98095.06;1772064;79;21149;-63
2022/01/31 02:29:01;;;;;;;1.00;0.25;;;;;;;1.73;74.15;98095.55;1767130;80;21097;-61
2022/01/31 02:31:28;;;;;;;1.40;0.37;;;;;;;1.70;74.07;98103.12;1769787;79;21105;-62
2022/01/31 02:33:55;;;;;;;0.65;0.10;;;;;;;1.75;74.42;98093.20;1722751;80;21066;-61
2022/01/31 02:36:22;;;;;;;1.42;0.30;;;;;;;1.80;75.00;98086.33;1742494;80;21150;-63
2022/01/31 02:38:48;;;;;;;0.90;0.30;;;;;;;1.72;74.74;98103.00;1742775;80;21211;-64
2022/01/31 02:41:15;;;;;;;0.90;0.20;;;;;;;1.72;76.75;98092.14;1737289;80;21062;-64
2022/01/31 02:43:47;;;;;;;0.75;0.20;;;;;;;1.67;77.48;98089.91;1760345;80;21023;-66
2022/01/31 02:46:12;;;;;;;1.60;0.20;;;;;;;1.62;77.37;98094.64;1770687;78;21066;-63
2022/01/31 02:48:38;;;;;;;1.42;0.37;;;;;;;1.58;77.45;98089.82;1772078;78;21116;-65
2022/01/31 02:51:09;;;;;;;1.17;0.30;;;;;;;1.58;77.04;98089.37;1765171;78;21005;-69
2022/01/31 02:53:40;;;;;;;1.45;0.40;;;;;;;1.67;76.26;98112.44;1783267;79;21050;-64
2022/01/31 02:56:03;;;;;;;1.57;0.33;;;;;;;1.72;75.69;98099.92;1752489;78;21036;-66
2022/01/31 02:58:30;;;;;;;1.10;0.20;;;;;;;1.70;75.08;98103.56;1779234;80;21132;-63
2022/01/31 03:00:58;;;;;;;0.72;0.10;;;;;;;1.69;75.00;98104.05;1783093;78;21119;-65
2022/01/31 03:03:41;;;;;;;0.98;0.15;;;;;;;1.64;74.44;98093.23;1789265;79;21092;-61
2022/01/31 03:06:07;;;;;;;0.57;0.15;;;;;;;1.59;75.28;98092.77;1761293;80;21049;-63
2022/01/31 03:08:36;;;;;;;0.85;0.10;;;;;;;1.61;75.38;98092.98;1758227;81;21504;-64
2022/01/31 03:11:04;;;;;;;1.15;0.30;;;;;;;1.66;74.70;98096.06;1752231;80;21132;-61
2022/01/31 03:13:38;;;;;;;1.55;0.30;;;;;;;1.66;74.02;98097.36;1756414;79;20988;-59
2022/01/31 03:16:05;;;;;;;0.82;0.17;;;;;;;1.63;73.83;98097.59;1757212;79;21148;-64
2022/01/31 03:18:51;;;;;;;1.02;0.30;;;;;;;1.61;74.04;98099.47;1751067;80;21016;-64
2022/01/31 03:21:18;;;;;;;0.70;0.20;;;;;;;1.58;73.87;98119.17;1745557;81;21076;-65
2022/01/31 03:23:47;;;;;;;4.60;0.42;;;;;;;1.59;73.72;98109.63;1755413;79;21094;-69
2022/01/31 03:26:13;;;;;;;0.68;0.15;;;;;;;1.66;73.40;98110.77;1761152;81;21124;-62
2022/01/31 03:28:40;;;;;;;0.70;0.20;;;;;;;1.66;73.00;98121.14;1730775;81;21882;-63
2022/01/31 03:31:07;;;;;;;0.98;0.23;;;;;;;1.63;73.33;98111.86;1736136;81;21490;-64
2022/01/31 03:33:33;;;;;;;1.30;0.30;;;;;;;1.54;73.59;98116.94;1732235;81;21023;-62
2022/01/31 03:36:00;;;;;;;1.75;0.42;;;;;;;1.43;74.80;98120.36;1748393;81;21461;-62
2022/01/31 03:38:26;;;;;;;1.27;0.40;;;;;;;1.40;75.09;98110.27;1756097;81;21128;-60
2022/01/31 03:40:53;;;;;;;1.25;0.25;;;;;;;1.44;75.06;98108.58;1754591;81;22233;-63
2022/01/31 03:43:19;;;;;;;0.85;0.10;;;;;;;1.47;77.66;98110.13;1761449;79;21668;-68
2022/01/31 03:45:47;;;;;;;0.78;0.20;;;;;;;1.47;76.84;98115.30;1742575;81;21337;-65
2022/01/31 03:48:18;;;;;;;2.40;0.33;;;;;;;1.44;76.26;98118.95;1760794;79;21261;-63
2022/01/31 03:50:45;;;;;;;0.93;0.20;;;;;;;1.41;76.82;98119.22;1728388;82;21058;-63
2022/01/31 03:53:11;;;;;;;1.27;0.20;;;;;;;1.32;76.56;98108.26;1771680;79;21045;-63
2022/01/31 03:55:39;;;;;;;1.00;0.15;;;;;;;1.28;77.45;98123.70;1752355;78;21065;-62
2022/01/31 03:58:05;;;;;;;0.40;0.10;;;;;;;1.30;76.03;98121.33;1776945;78;21022;-63
2022/01/31 04:00:43;;;;;;;2.12;0.40;;;;;;;1.40;76.16;98129.70;1774962;78;21375;-65
2022/01/31 04:03:09;;;;;;;0.42;0.10;;;;;;;1.44;75.75;98129.80;1754701;80;21060;-64
2022/01/31 04:05:39;;;;;;;1.15;0.20;;;;;;;1.43;75.49;98138.50;1773904;79;21120;-60
2022/01/31 04:08:06;;;;;;;0.20;0.10;;;;;;;1.41;75.33;98129.58;1735052;80;21150;-61
2022/01/31 04:10:35;;;;;;;0.68;0.20;;;;;;;1.37;74.73;98132.05;1747723;79;21015;-65
2022/01/31 04:13:03;;;;;;;0.20;0.03;;;;;;;1.38;74.18;98132.86;1739063;80;21082;-63
2022/01/31 04:15:29;;;;;;;1.87;0.17;;;;;;;1.44;73.75;98142.27;1754479;81;21172;-60
2022/01/31 04:17:55;;;;;;;1.17;0.20;;;;;;;1.55;73.54;98136.27;1740446;79;21537;-65
2022/01/31 04:20:21;;;;;;;1.42;0.20;;;;;;;1.60;72.79;98134.13;1728762;80;20999;-59
2022/01/31 04:23:07;;;;;;;0.85;0.20;;;;;;;1.60;72.33;98140.61;1751000;80;21643;-60
2022/01/31 04:25:31;;;;;;;0.78;0.20;;;;;;;1.55;71.59;98142.74;1756738;80;21042;-62
2022/01/31 04:28:06;;;;;;;2.12;0.20;;;;;;;1.49;71.23;98140.63;1745407;80;22283;-62
2022/01/31 04:30:37;;;;;;;;;;;;;;;1.44;71.20;98168.67;1765806;79;21188;-64
2022/01/31 04:33:04;;;;;;;1.50;0.30;;;;;;;1.43;71.06;98151.45;1730111;79;20183;-59
2022/01/31 04:35:30;;;;;;;0.98;0.28;;;;;;;1.37;71.06;98157.95;1763816;79;21038;-64
2022/01/31 04:37:59;;;;;;;1.05;0.20;;;;;;;1.38;71.14;98159.61;1767290;79;21082;-61
2022/01/31 04:40:26;;;;;;;0.53;0.20;;;;;;;1.34;71.04;98148.30;1760705;79;21593;-63
2022/01/31 04:42:52;;;;;;;0.75;0.10;;;;;;;1.40;71.08;98147.36;1773422;79;21180;-63
2022/01/31 04:45:18;;;;;;;0.85;0.20;;;;;;;1.49;70.85;98152.28;1766548;79;22261;-62
2022/01/31 04:47:45;;;;;;;1.07;0.20;;;;;;;1.55;70.33;98154.41;1760837;79;21046;-69
2022/01/31 04:50:11;;;;;;;0.65;0.15;;;;;;;1.49;70.17;98164.77;1758920;79;22358;-63
2022/01/31 04:52:41;;;;;;;0.50;0.20;;;;;;;1.47;70.46;98159.36;1776337;78;21517;-64
2022/01/31 04:55:07;;;;;;;0.17;0.08;;;;;;;1.42;71.47;98158.90;1777791;78;23371;-70
2022/01/31 04:57:34;;;;;;;1.32;0.20;;;;;;;1.39;71.22;98171.61;1788113;79;21056;-61
2022/01/31 05:00:01;;;;;;;3.60;0.23;;;;;;;1.38;71.26;98162.20;1769597;78;21562;-64
2022/01/31 05:02:27;;;;;;;1.02;0.23;;;;;;;1.37;71.17;98177.88;1757085;78;21064;-71
2022/01/31 05:04:53;;;;;;;0.60;0.20;;;;;;;1.35;71.17;98202.60;1774781;78;21096;-68
2022/01/31 05:07:21;;;;;;;0.65;0.10;;;;;;;1.35;71.80;98187.05;1773781;78;21037;-65
2022/01/31 05:09:48;;;;;;;1.07;0.30;;;;;;;1.33;71.08;98182.92;1780351;78;21064;-65
2022/01/31 05:12:15;;;;;;;2.33;0.62;;;;;;;1.30;70.89;98179.63;1791381;78;21065;-64
2022/01/31 05:14:41;;;;;;;1.45;0.30;;;;;;;1.29;70.91;98178.00;1786337;78;21061;-66
2022/01/31 05:17:07;;;;;;;0.93;0.20;;;;;;;1.29;71.26;98178.00;1787174;79;21096;-69
2022/01/31 05:19:34;;;;;;;1.15;0.30;;;;;;;1.34;70.84;98187.17;1761016;78;21217;-69
2022/01/31 05:22:00;;;;;;;1.42;0.30;;;;;;;1.39;70.07;98192.82;1756293;80;22134;-64
2022/01/31 05:24:28;;;;;;;0.70;0.20;;;;;;;1.40;70.33;98189.30;1783774;79;21095;-63
2022/01/31 05:26:54;;;;;;;0.88;0.10;;;;;;;1.36;70.17;98193.05;1783660;78;21037;-65
2022/01/31 05:29:21;;;;;;;0.53;0.10;;;;;;;1.30;70.61;98191.29;1784836;79;21088;-64
2022/01/31 05:31:49;;;;;;;1.65;0.30;;;;;;;1.25;71.08;98199.07;1737954;80;21336;-63
2022/01/31 05:34:16;;;;;;;0.40;0.10;;;;;;;1.19;71.79;98197.75;1772257;80;21061;-67
2022/01/31 05:36:42;;;;;;;1.40;0.33;;;;;;;1.18;71.68;98193.98;1742598;80;21057;-63
2022/01/31 05:39:09;;;;;;;2.33;0.70;;;;;;;1.17;71.23;98191.06;1763800;79;21703;-61
2022/01/31 05:41:35;;;;;;;2.35;0.60;;;;;;;1.12;71.30;98190.11;1769044;78;21140;-66
2022/01/31 05:44:01;;;;;;;2.65;0.72;;;;;;;1.12;71.51;98195.28;1766966;78;21062;-61
2022/01/31 05:46:28;;;;;;;2.25;0.65;;;;;;;1.14;72.10;98191.28;1764850;79;21053;-63
2022/01/31 05:48:54;;;;;;;2.30;0.65;;;;;;;1.15;72.06;98219.67;1767253;79;21185;-67
2022/01/31 05:51:22;;;;;;;2.85;0.37;;;;;;;1.17;72.02;98199.64;1778511;79;21061;-61
2022/01/31 05:53:50;;;;;;;1.57;0.45;;;;;;;1.16;72.08;98191.54;1773610;79;21061;-62
2022/01/31 05:56:17;;;;;;;1.30;0.30;;;;;;;1.14;71.90;98187.41;1767514;79;21135;-66
2022/01/31 05:58:45;;;;;;;2.30;0.40;;;;;;;1.07;72.85;98204.70;1771646;79;21545;-60
2022/01/31 06:01:11;;;;;;;1.20;0.20;;;;;;;1.04;74.95;98206.70;1773136;78;22393;-61
2022/01/31 06:03:38;;;;;;;1.77;0.30;;;;;;;1.01;74.93;98214.69;1757340;79;21520;-60
2022/01/31 06:06:05;;;;;;;1.95;0.65;;;;;;;1.01;74.93;98214.69;1769835;80;21071;-65
2022/01/31 06:08:32;;;;;;;0.93;0.17;;;;;;;1.07;75.18;98222.02;1767028;80;21151;-62
2022/01/31 06:10:59;;;;;;;1.85;0.30;;;;;;;1.10;81.65;98232.14;1765792;80;21066;-63
2022/01/31 06:13:31;;;;;;;1.65;0.30;;;;;;;1.07;75.54;98223.30;1769161;79;21585;-66
2022/01/31 06:15:55;;;;;;;1.30;0.30;;;;;;;1.06;74.25;98226.38;1768016;80;21038;-64
2022/01/31 06:18:21;;;;;;;1.87;0.42;;;;;;;1.03;73.53;98236.14;1751177;80;21078;-64
2022/01/31 06:20:48;;;;;;;2.40;0.50;;;;;;;1.03;73.88;98241.33;1765943;79;21127;-66
2022/01/31 06:23:14;;;;;;;2.50;0.55;;;;;;;1.01;74.15;98245.77;1770083;79;21632;-63
2022/01/31 06:25:41;;;;;;;3.72;0.80;;;;;;;1.01;74.99;98248.36;1772120;80;21616;-62
2022/01/31 06:28:07;;;;;;;3.35;0.60;;;;;;;1.00;75.49;98233.78;1768395;79;21750;-62
2022/01/31 06:30:36;;;;;;;0.82;0.10;;;;;;;0.98;75.57;98228.71;1768522;79;21920;-62
2022/01/31 06:33:03;;;;;;;1.62;0.47;;;;;;;1.01;75.26;98250.50;1766437;80;21140;-62
2022/01/31 06:35:29;;;;;;;1.42;0.23;;;;;;;1.02;76.08;98249.55;1768657;80;21108;-59
2022/01/31 06:37:56;;;;;;;0.98;0.30;;;;;;;1.01;76.90;98245.77;1765535;80;21098;-63
2022/01/31 06:40:22;;;;;;;1.37;0.35;;;;;;;0.98;77.22;98244.73;1773768;80;21113;-59
2022/01/31 06:42:48;;;;;;;1.90;0.42;;;;;;;0.97;76.82;98236.59;1773240;79;21120;-62
2022/01/31 06:45:15;;;;;;;1.17;0.37;;;;;;;0.98;77.18;98240.84;1774356;79;21109;-60
2022/01/31 06:47:42;;;;;;;2.30;0.70;;;;;;;0.94;76.59;98253.17;1782683;78;21127;-68
2022/01/31 06:50:09;;;;;;;1.52;0.50;;;;;;;1.44;77.25;98259.38;1760210;80;21096;-60
2022/01/31 06:52:38;;;;;;;0.85;0.30;;;;;;;2.06;75.24;98256.73;1743070;80;21074;-60
2022/01/31 06:55:06;;;;;;;2.20;0.62;;;;;;;2.14;75.72;98271.70;1754637;80;21117;-58
2022/01/31 06:57:35;;;;;;;2.42;0.57;;;;;;;1.87;74.95;98258.66;1773362;79;21042;-58
2022/01/31 07:00:04;;;;;;;0.90;0.20;;;;;;;1.73;74.02;98264.08;1765713;79;21051;-62
2022/01/31 07:02:31;;;;;;;0.80;0.23;;;;;;;1.71;74.25;98269.86;1765573;79;21097;-55
2022/01/31 07:05:00;;;;;;;1.40;0.30;;;;;;;1.66;73.38;98277.54;1765160;79;21026;-60
2022/01/31 07:07:30;;;;;;;4.87;0.80;;;;;;;1.63;72.41;98277.77;1772279;79;21053;-55
2022/01/31 07:09:56;;;;;;;2.05;0.57;;;;;;;1.62;72.67;98272.70;1767293;79;21529;-62
2022/01/31 07:12:31;;;;;;;2.00;0.40;;;;;;;1.50;72.33;98286.13;1770469;79;21540;-61
2022/01/31 07:14:53;;;;;;;1.15;0.30;;;;;;;1.43;70.96;98279.73;1771495;79;21121;-62
2022/01/31 07:17:20;;;;;;;2.25;0.50;;;;;;;1.46;71.06;98273.03;1768909;79;21143;-62
2022/01/31 07:19:46;;;;;;;2.05;0.23;;;;;;;1.45;69.86;98294.73;1771607;79;21066;-61
2022/01/31 07:22:14;;;;;;;3.70;0.50;;;;;;;1.49;69.20;98277.51;1772844;79;21131;-60
2022/01/31 07:24:51;;;;;;;2.10;0.40;;;;;;;1.55;69.48;98284.01;1768788;78;21301;-65
2022/01/31 07:27:15;;;;;;;1.62;0.60;;;;;;;1.60;69.18;98283.19;1741159;80;21552;-65
2022/01/31 07:29:44;;;;;;;2.47;0.65;;;;;;;1.64;68.32;98281.99;1775814;78;21232;-65
2022/01/31 07:32:11;;;;;;;1.87;0.55;;;;;;;1.69;66.19;98306.28;1776287;80;21101;-63
2022/01/31 07:34:39;;;;;;;1.25;0.40;;;;;;;1.66;65.77;98297.44;1772021;79;21093;-59
2022/01/31 07:37:06;;;;;;;1.70;0.20;;;;;;;1.66;66.10;98299.58;1770317;79;20994;-61
2022/01/31 07:39:34;;;;;;;0.90;0.25;;;;;;;1.70;66.19;98303.20;1769649;79;21121;-60
2022/01/31 07:42:01;;;;;;;1.25;0.40;;;;;;;1.69;66.55;98303.69;1768059;78;21085;-63
2022/01/31 07:44:27;;;;;;;2.55;0.60;;;;;;;1.73;66.92;98301.67;1740254;78;21100;-65
2022/01/31 07:46:53;;;;;;;1.85;0.50;;;;;;;1.72;67.77;98317.72;1753323;79;21077;-60
2022/01/31 07:49:22;;;;;;;1.95;0.40;;;;;;;1.75;67.94;98317.94;1772231;78;21117;-60
2022/01/31 07:51:48;;;;;;;0.72;0.20;;;;;;;1.77;67.65;98313.48;1768588;78;21681;-63
2022/01/31 07:54:15;;;;;;;1.25;0.40;;;;;;;1.80;66.62;98319.70;1757070;79;21343;-59
2022/01/31 07:56:43;;;;;;;1.55;0.40;;;;;;;1.84;66.51;98315.47;1774097;78;22140;-59
2022/01/31 07:59:09;;;;;;;1.10;0.20;;;;;;;1.89;66.61;98304.74;1784939;78;23298;-68
2022/01/31 08:01:36;;;;;;;1.60;0.47;;;;;;;1.96;66.67;98314.98;1776229;78;21529;-70
2022/01/31 08:04:02;;;;;;;1.40;0.23;;;;;;;2.00;66.06;98325.95;1782663;79;21580;-61
2022/01/31 08:06:29;;;;;;;3.50;0.47;;;;;;;2.04;65.88;98321.70;1785747;78;21304;-62
2022/01/31 08:08:56;;;;;;;0.80;0.25;;;;;;;2.03;65.65;98322.67;1779496;78;21590;-68
2022/01/31 08:11:30;;;;;;;0.60;0.20;;;;;;;2.08;66.04;98338.34;1777879;78;21704;-52
2022/01/31 08:13:57;;;;;;;2.35;0.35;;;;;;;2.08;66.72;98334.44;1763658;79;21072;-52
2022/01/31 08:16:21;;;;;;;1.57;0.20;;;;;;;2.04;69.73;98339.05;1788016;78;21047;-52
2022/01/31 08:18:48;;;;;;;2.20;0.60;;;;;;;2.04;70.75;98332.56;1785236;78;21272;-53
2022/01/31 08:21:15;;;;;;;0.57;0.10;;;;;;;2.07;71.77;98338.81;1778735;78;21123;-52
2022/01/31 08:23:42;;;;;;;1.32;0.42;;;;;;;2.09;70.83;98358.97;1775099;78;21046;-53
2022/01/31 08:26:15;;;;;;;1.25;0.30;;;;;;;2.17;69.96;98349.28;1786240;78;21117;-53
2022/01/31 08:28:44;;;;;;;1.75;0.30;;;;;;;2.19;70.57;98343.52;1763171;79;21021;-53
2022/01/31 08:31:16;;;;;;;1.95;0.40;;;;;;;2.24;70.15;98355.66;1786988;78;21026;-53
2022/01/31 08:33:49;;;;;;;1.72;0.40;;;;;;;2.20;68.95;98371.10;1785089;78;21107;-52
2022/01/31 08:36:12;;;;;;;2.70;0.62;;;;;;;2.20;69.48;98353.78;1779486;78;23335;-53
2022/01/31 08:38:41;;;;;;;2.17;0.70;;;;;;;2.09;67.49;98367.23;1781469;78;21064;-52
2022/01/31 08:41:08;;;;;;;1.55;0.47;;;;;;;2.07;67.12;98391.16;1773979;78;21066;-54
2022/01/31 08:43:36;;;;;;;1.37;0.45;;;;;;;1.98;68.24;98370.64;1751203;79;21092;-53
2022/01/31 08:46:04;;;;;;;1.47;0.42;;;;;;;1.95;69.09;98371.72;1754867;79;21547;-53
2022/01/31 08:48:31;;;;;;;2.17;0.40;;;;;;;1.92;69.41;98366.76;1790140;78;21286;-52
2022/01/31 08:50:58;;;;;;;1.37;0.30;;;;;;;1.92;68.57;98386.21;1781988;78;21116;-53
2022/01/31 08:53:25;;;;;;;2.47;0.40;;;;;;;1.94;67.24;98370.53;1783382;78;21166;-53
2022/01/31 08:55:58;;;;;;;4.92;0.68;;;;;;;1.94;65.34;98395.99;1764330;79;22309;-60
2022/01/31 08:58:25;;;;;;;2.65;0.30;;;;;;;1.97;65.47;98381.98;1725695;80;21114;-59
2022/01/31 09:00:58;;;;;;;1.72;0.40;;;;;;;2.03;65.58;98376.30;1736426;80;21258;-55
2022/01/31 09:03:40;;;;;;;1.60;0.47;;;;;;;2.08;64.90;98401.89;1761154;79;21097;-52
2022/01/31 09:05:51;;;;;;;4.90;0.68;;;;;;;2.16;63.81;98389.98;1759390;79;21145;-52
2022/01/31 09:08:17;;;;;;;1.55;0.30;;;;;;;2.19;63.02;98396.72;1764817;79;21083;-52
2022/01/31 09:10:44;;;;;;;2.08;0.53;;;;;;;2.20;61.92;98410.02;1765396;79;21075;-52
2022/01/31 09:13:13;;;;;;;2.72;0.50;;;;;;;2.20;62.20;98402.23;1764064;79;21508;-52
2022/01/31 09:15:40;;;;;;;1.15;0.30;;;;;;;2.22;62.14;98399.89;1730759;79;21623;-67
2022/01/31 09:18:07;;;;;;;2.05;0.50;;;;;;;2.23;61.61;98397.63;1763657;79;22367;-60
2022/01/31 09:20:34;;;;;;;2.50;0.60;;;;;;;2.22;62.00;98403.78;1763105;79;21035;-66
2022/01/31 09:23:02;;;;;;;3.15;0.50;;;;;;;2.16;62.94;98413.81;1766190;79;21047;-61
2022/01/31 09:25:29;;;;;;;2.65;0.70;;;;;;;2.11;64.43;98426.31;1738829;79;21094;-61
2022/01/31 09:27:57;;;;;;;3.47;0.72;;;;;;;1.99;69.70;98409.92;1761973;79;21114;-62
2022/01/31 09:30:26;;;;;;;2.30;0.82;;;;;;;1.88;70.03;98421.56;1767985;79;21568;-60
2022/01/31 09:32:52;;;;;;;3.67;0.95;;;;;;;1.79;70.75;98433.47;1738735;79;21105;-59
2022/01/31 09:35:18;;;;;;;4.15;0.80;;;;;;;1.75;71.69;98425.09;1723822;80;21058;-67
2022/01/31 09:37:44;;;;;;;4.08;1.10;;;;;;;1.71;69.52;98425.43;1778053;78;21076;-61
2022/01/31 09:40:17;;;;;;;2.62;0.82;;;;;;;1.76;69.76;98419.42;1777191;78;21084;-62
2022/01/31 09:42:57;;;;;;;2.87;1.10;;;;;;;1.76;69.28;98418.95;1755239;79;21132;-65
2022/01/31 09:45:22;;;;;;;3.60;0.90;;;;;;;1.80;68.18;98431.20;1703414;80;21760;-63
2022/01/31 09:50:25;;;;;;;2.98;0.80;;;;;;;1.84;64.85;98412.72;1747599;78;21848;-60
2022/01/31 09:52:51;;;;;;;2.00;0.60;;;;;;;1.92;64.62;98410.85;1779342;78;21140;-61
2022/01/31 09:57:54;;;;;;;3.80;1.02;;;;;;;1.90;64.62;98398.48;1796354;78;22020;-57
2022/01/31 10:00:32;;;;;;;2.35;0.50;;;;;;;1.97;63.53;98417.81;1762465;78;21013;-57
2022/01/31 10:03:07;;;;;;;2.50;0.53;;;;;;;2.03;63.39;98433.38;1739008;80;21077;-56
2022/01/31 10:05:34;;;;;;;2.98;0.62;;;;;;;2.04;62.69;98417.69;1771270;79;21002;-57
2022/01/31 10:08:10;;;;;;;3.12;0.72;;;;;;;2.04;62.42;98415.09;1770134;80;21062;-56
2022/01/31 10:10:40;;;;;;;1.65;0.47;;;;;;;2.07;62.70;98415.80;1688764;83;21095;-57
2022/01/31 10:16:28;;;;;;;1.25;0.30;;;;;;;2.02;64.10;98433.03;1712272;81;20975;-57
2022/01/31 10:19:10;;;;;;;1.87;0.50;;;;;;;1.95;64.68;98470.28;1713183;81;20999;-57
2022/01/31 10:22:07;;;;;;;2.30;0.70;;;;;;;1.91;65.91;98441.61;1718814;82;21609;-57
2022/01/31 10:24:34;;;;;;;1.40;0.40;;;;;;;1.91;65.93;98442.91;1672039;83;21114;-56
2022/01/31 10:27:18;;;;;;;1.45;0.40;;;;;;;1.84;65.09;98439.13;1687120;81;21082;-56
2022/01/31 10:29:46;;;;;;;2.08;0.60;;;;;;;1.83;65.29;98444.80;1716918;81;22328;-57
2022/01/31 10:32:25;;;;;;;1.65;0.55;;;;;;;1.82;65.48;98459.17;1735518;81;21070;-57
2022/01/31 10:34:56;;;;;;;2.08;0.60;;;;;;;1.80;64.98;98442.88;1718272;82;21105;-55
2022/01/31 10:37:24;;;;;;;4.17;0.57;;;;;;;1.76;64.62;98451.84;1719050;81;21098;-56
2022/01/31 10:54:12;;;;;;;2.65;0.80;;;;;;;1.83;63.74;98462.11;1713968;81;21510;-59
2022/01/31 10:56:50;;;;;;;2.42;0.60;;;;;;;1.84;64.20;98457.28;1721046;80;21108;-57
2022/01/31 10:59:29;;;;;;;2.15;0.55;;;;;;;1.83;64.92;98475.92;1691812;83;20898;-58
2022/01/31 11:01:57;;;;;;;2.65;0.65;;;;;;;1.82;66.07;98461.28;1711773;82;21091;-58
2022/01/31 11:04:24;;;;;;;2.00;0.70;;;;;;;1.81;65.95;98463.99;1734091;80;21550;-58
2022/01/31 11:06:58;;;;;;;3.65;0.80;;;;;;;1.80;66.27;98461.87;1715903;80;21066;-58
2022/01/31 11:09:25;;;;;;;4.17;1.52;;;;;;;1.81;64.63;98460.10;1733029;81;22302;-56
2022/01/31 11:11:51;;;;;;;2.92;0.70;;;;;;;1.81;63.55;98467.41;1745703;80;21646;-57
2022/01/31 11:14:20;;;;;;;3.75;0.55;;;;;;;1.87;63.00;98468.73;1742206;80;21058;-58
2022/01/31 11:16:47;;;;;;;4.83;1.05;;;;;;;1.88;61.74;98462.59;1734639;80;21058;-58
2022/01/31 11:19:17;;;;;;;3.12;0.60;;;;;;;1.92;61.77;98469.69;1740272;80;21137;-57
2022/01/31 11:21:46;;;;;;;3.12;0.88;;;;;;;1.95;61.80;98457.77;1742308;80;21219;-57
2022/01/31 11:24:22;;;;;;;1.25;0.42;;;;;;;2.01;61.76;98474.17;1718349;81;21117;-57
2022/01/31 11:26:54;;;;;;;2.52;0.50;;;;;;;1.97;61.63;98470.98;1739636;80;22261;-58
2022/01/31 11:29:21;;;;;;;1.30;0.50;;;;;;;1.99;62.59;98470.39;1737938;80;20983;-56
2022/01/31 11:31:48;;;;;;;1.70;0.50;;;;;;;1.99;62.34;98464.39;1718601;82;21637;-56
2022/01/31 11:34:14;;;;;;;2.62;0.75;;;;;;;2.02;61.73;98468.87;1742122;80;21106;-57
2022/01/31 11:36:42;;;;;;;1.87;0.60;;;;;;;2.00;61.31;98470.77;1746520;80;21515;-57
2022/01/31 11:39:12;;;;;;;3.45;1.05;;;;;;;2.03;62.31;98492.59;1744547;80;21337;-56
2022/01/31 11:41:45;;;;;;;2.10;0.70;;;;;;;2.04;61.74;98466.98;1740981;80;21053;-58
2022/01/31 11:44:35;;;;;;;3.90;0.95;;;;;;;2.11;61.14;98485.98;1745438;80;21046;-57
2022/01/31 11:47:05;;;;;;;3.65;0.80;;;;;;;2.09;60.39;98474.42;1734075;80;21780;-57
2022/01/31 11:49:54;;;;;;;1.87;0.50;;;;;;;2.11;59.92;98471.72;1747557;80;21078;-55
2022/01/31 11:52:20;;;;;;;2.12;0.50;;;;;;;2.09;59.40;98476.20;1749828;80;21039;-57
2022/01/31 11:54:53;;;;;;;2.30;0.60;;;;;;;2.18;58.96;98461.22;1744626;80;21489;-58
2022/01/31 11:57:22;;;;;;;2.65;0.78;;;;;;;2.24;58.73;98465.95;1750801;80;22013;-57
2022/01/31 11:59:54;;;;;;;2.40;0.65;;;;;;;2.29;58.21;98474.69;1755838;80;21122;-56
2022/01/31 12:02:23;;;;;;;1.75;0.40;;;;;;;2.34;58.07;98496.75;1747117;80;21095;-56
2022/01/31 12:04:51;;;;;;;2.67;0.72;;;;;;;2.36;57.47;98487.55;1752850;79;21055;-55
2022/01/31 12:07:41;;;;;;;2.02;0.60;;;;;;;2.34;57.18;98494.63;1757608;79;21534;-56
2022/01/31 12:10:23;;;;;;;1.80;0.50;;;;;;;2.34;56.98;98501.13;1753846;80;21035;-57
2022/01/31 12:13:01;;;;;;;3.35;0.80;;;;;;;2.33;56.88;98506.76;1759414;79;21120;-56